sensor_id;sensor_type;location;lat;lon;timestamp;P1;durP1;ratioP1;P2;durP2;ratioP2
69325;SDS011;56471;53.508;49.252;2023-04-21T00:01:02;7.05;;;2.33;;
69325;SDS011;56471;53.508;49.252;2023-04-21T00:03:32;8.23;;;2.22;;
69325;SDS011;56471;53.508;49.252;2023-04-21T00:06:02;6.57;;;2.10;;
69325;SDS011;56471;53.508;49.252;2023-04-21T00:08:30;8.48;;;2.35;;
69325;SDS011;56471;53.508;49.252;2023-04-21T00:10:55;7.38;;;2.30;;
69325;SDS011;56471;53.508;49.252;2023-04-21T00:13:21;8.65;;;2.33;;
69325;SDS011;56471;53.508;49.252;2023-04-21T00:15:48;10.20;;;2.20;;
69325;SDS011;56471;53.508;49.252;2023-04-21T00:18:14;9.02;;;2.10;;
69325;SDS011;56471;53.508;49.252;2023-04-21T00:20:40;10.55;;;2.25;;
69325;SDS011;56471;53.508;49.252;2023-04-21T00:23:07;9.27;;;2.00;;
69325;SDS011;56471;53.508;49.252;2023-04-21T00:25:35;10.50;;;2.25;;
69325;SDS011;56471;53.508;49.252;2023-04-21T00:28:01;6.97;;;2.63;;
69325;SDS011;56471;53.508;49.252;2023-04-21T00:30:26;10.52;;;2.50;;
69325;SDS011;56471;53.508;49.252;2023-04-21T00:32:52;7.05;;;2.15;;
69325;SDS011;56471;53.508;49.252;2023-04-21T00:35:18;9.88;;;2.40;;
69325;SDS011;56471;53.508;49.252;2023-04-21T00:37:43;9.65;;;2.42;;
69325;SDS011;56471;53.508;49.252;2023-04-21T00:40:09;8.88;;;2.25;;
69325;SDS011;56471;53.508;49.252;2023-04-21T00:42:35;8.07;;;2.22;;
69325;SDS011;56471;53.508;49.252;2023-04-21T00:45:02;10.05;;;2.40;;
69325;SDS011;56471;53.508;49.252;2023-04-21T00:47:28;6.90;;;2.20;;
69325;SDS011;56471;53.508;49.252;2023-04-21T00:49:54;5.80;;;2.03;;
69325;SDS011;56471;53.508;49.252;2023-04-21T00:52:19;6.43;;;2.00;;
69325;SDS011;56471;53.508;49.252;2023-04-21T00:54:46;8.02;;;2.47;;
69325;SDS011;56471;53.508;49.252;2023-04-21T00:57:11;8.77;;;2.22;;
69325;SDS011;56471;53.508;49.252;2023-04-21T00:59:37;8.23;;;2.17;;
69325;SDS011;56471;53.508;49.252;2023-04-21T01:02:03;14.07;;;3.13;;
69325;SDS011;56471;53.508;49.252;2023-04-21T01:04:29;7.20;;;2.78;;
69325;SDS011;56471;53.508;49.252;2023-04-21T01:07:00;12.40;;;2.63;;
69325;SDS011;56471;53.508;49.252;2023-04-21T01:09:28;10.30;;;2.53;;
69325;SDS011;56471;53.508;49.252;2023-04-21T01:14:29;7.95;;;2.30;;
69325;SDS011;56471;53.508;49.252;2023-04-21T01:16:55;10.90;;;2.63;;
69325;SDS011;56471;53.508;49.252;2023-04-21T01:19:21;6.95;;;2.58;;
69325;SDS011;56471;53.508;49.252;2023-04-21T01:21:49;8.80;;;2.58;;
69325;SDS011;56471;53.508;49.252;2023-04-21T01:24:17;5.75;;;2.50;;
69325;SDS011;56471;53.508;49.252;2023-04-21T01:26:43;5.07;;;2.30;;
69325;SDS011;56471;53.508;49.252;2023-04-21T01:29:13;8.23;;;2.70;;
69325;SDS011;56471;53.508;49.252;2023-04-21T01:31:40;8.07;;;2.58;;
69325;SDS011;56471;53.508;49.252;2023-04-21T01:34:06;6.50;;;2.22;;
69325;SDS011;56471;53.508;49.252;2023-04-21T01:36:32;9.50;;;2.22;;
69325;SDS011;56471;53.508;49.252;2023-04-21T01:38:58;7.50;;;2.70;;
69325;SDS011;56471;53.508;49.252;2023-04-21T01:41:23;8.23;;;2.30;;
69325;SDS011;56471;53.508;49.252;2023-04-21T01:43:49;6.78;;;2.53;;
69325;SDS011;56471;53.508;49.252;2023-04-21T01:46:15;5.10;;;2.35;;
69325;SDS011;56471;53.508;49.252;2023-04-21T01:48:43;4.32;;;2.05;;
69325;SDS011;56471;53.508;49.252;2023-04-21T01:51:09;6.03;;;2.17;;
69325;SDS011;56471;53.508;49.252;2023-04-21T01:53:35;6.63;;;2.70;;
69325;SDS011;56471;53.508;49.252;2023-04-21T01:56:01;9.30;;;2.35;;
69325;SDS011;56471;53.508;49.252;2023-04-21T01:58:26;8.18;;;2.30;;
69325;SDS011;56471;53.508;49.252;2023-04-21T02:00:52;3.08;;;2.00;;
69325;SDS011;56471;53.508;49.252;2023-04-21T02:03:18;7.10;;;2.42;;
69325;SDS011;56471;53.508;49.252;2023-04-21T02:05:43;10.82;;;2.25;;
69325;SDS011;56471;53.508;49.252;2023-04-21T02:08:09;5.25;;;2.15;;
69325;SDS011;56471;53.508;49.252;2023-04-21T02:10:34;9.07;;;2.10;;
69325;SDS011;56471;53.508;49.252;2023-04-21T02:13:00;6.72;;;2.30;;
69325;SDS011;56471;53.508;49.252;2023-04-21T02:15:26;6.25;;;2.33;;
69325;SDS011;56471;53.508;49.252;2023-04-21T02:17:51;5.45;;;2.35;;
69325;SDS011;56471;53.508;49.252;2023-04-21T02:20:17;6.28;;;2.05;;
69325;SDS011;56471;53.508;49.252;2023-04-21T02:22:43;9.93;;;2.50;;
69325;SDS011;56471;53.508;49.252;2023-04-21T02:25:09;6.50;;;2.47;;
69325;SDS011;56471;53.508;49.252;2023-04-21T02:27:34;7.25;;;2.38;;
69325;SDS011;56471;53.508;49.252;2023-04-21T02:30:00;8.45;;;2.70;;
69325;SDS011;56471;53.508;49.252;2023-04-21T02:32:26;12.13;;;2.70;;
69325;SDS011;56471;53.508;49.252;2023-04-21T02:34:52;7.47;;;2.55;;
69325;SDS011;56471;53.508;49.252;2023-04-21T02:37:18;9.52;;;2.72;;
69325;SDS011;56471;53.508;49.252;2023-04-21T02:39:44;5.43;;;2.67;;
69325;SDS011;56471;53.508;49.252;2023-04-21T02:42:10;12.65;;;2.60;;
69325;SDS011;56471;53.508;49.252;2023-04-21T02:44:36;8.88;;;2.45;;
69325;SDS011;56471;53.508;49.252;2023-04-21T02:47:02;7.13;;;2.53;;
69325;SDS011;56471;53.508;49.252;2023-04-21T02:49:28;7.55;;;2.35;;
69325;SDS011;56471;53.508;49.252;2023-04-21T02:51:53;5.78;;;2.20;;
69325;SDS011;56471;53.508;49.252;2023-04-21T02:54:19;8.32;;;2.40;;
69325;SDS011;56471;53.508;49.252;2023-04-21T02:56:45;10.90;;;2.22;;
69325;SDS011;56471;53.508;49.252;2023-04-21T02:59:11;6.55;;;2.30;;
69325;SDS011;56471;53.508;49.252;2023-04-21T03:01:40;11.23;;;2.58;;
69325;SDS011;56471;53.508;49.252;2023-04-21T03:04:06;9.32;;;2.60;;
69325;SDS011;56471;53.508;49.252;2023-04-21T03:06:32;13.55;;;2.60;;
69325;SDS011;56471;53.508;49.252;2023-04-21T03:08:58;8.35;;;2.53;;
69325;SDS011;56471;53.508;49.252;2023-04-21T03:11:23;8.32;;;2.72;;
69325;SDS011;56471;53.508;49.252;2023-04-21T03:13:49;7.90;;;2.25;;
69325;SDS011;56471;53.508;49.252;2023-04-21T03:16:15;10.50;;;2.30;;
69325;SDS011;56471;53.508;49.252;2023-04-21T03:18:40;10.60;;;2.38;;
69325;SDS011;56471;53.508;49.252;2023-04-21T03:21:06;6.72;;;2.30;;
69325;SDS011;56471;53.508;49.252;2023-04-21T03:23:32;8.40;;;2.60;;
69325;SDS011;56471;53.508;49.252;2023-04-21T03:25:57;6.95;;;2.40;;
69325;SDS011;56471;53.508;49.252;2023-04-21T03:28:23;8.05;;;2.72;;
69325;SDS011;56471;53.508;49.252;2023-04-21T03:30:49;7.43;;;2.40;;
69325;SDS011;56471;53.508;49.252;2023-04-21T03:33:14;8.02;;;2.42;;
69325;SDS011;56471;53.508;49.252;2023-04-21T03:35:40;5.68;;;2.08;;
69325;SDS011;56471;53.508;49.252;2023-04-21T03:38:06;9.27;;;2.70;;
69325;SDS011;56471;53.508;49.252;2023-04-21T03:40:31;14.30;;;2.50;;
69325;SDS011;56471;53.508;49.252;2023-04-21T03:42:57;7.70;;;2.70;;
69325;SDS011;56471;53.508;49.252;2023-04-21T03:45:23;11.68;;;2.67;;
69325;SDS011;56471;53.508;49.252;2023-04-21T03:47:52;11.82;;;2.85;;
69325;SDS011;56471;53.508;49.252;2023-04-21T03:50:21;7.43;;;2.83;;
69325;SDS011;56471;53.508;49.252;2023-04-21T03:52:47;8.30;;;2.58;;
69325;SDS011;56471;53.508;49.252;2023-04-21T03:55:13;10.38;;;2.50;;
69325;SDS011;56471;53.508;49.252;2023-04-21T03:57:39;8.77;;;2.60;;
69325;SDS011;56471;53.508;49.252;2023-04-21T04:00:06;8.63;;;2.90;;
69325;SDS011;56471;53.508;49.252;2023-04-21T04:02:34;10.13;;;2.63;;
69325;SDS011;56471;53.508;49.252;2023-04-21T04:05:01;9.70;;;2.60;;
69325;SDS011;56471;53.508;49.252;2023-04-21T04:07:33;9.95;;;2.60;;
69325;SDS011;56471;53.508;49.252;2023-04-21T04:09:59;12.15;;;2.60;;
69325;SDS011;56471;53.508;49.252;2023-04-21T04:12:25;11.55;;;2.67;;
69325;SDS011;56471;53.508;49.252;2023-04-21T04:14:51;11.10;;;2.83;;
69325;SDS011;56471;53.508;49.252;2023-04-21T04:17:16;10.40;;;2.67;;
69325;SDS011;56471;53.508;49.252;2023-04-21T04:19:42;12.23;;;2.67;;
69325;SDS011;56471;53.508;49.252;2023-04-21T04:22:07;7.20;;;2.50;;
69325;SDS011;56471;53.508;49.252;2023-04-21T04:24:33;14.20;;;2.85;;
69325;SDS011;56471;53.508;49.252;2023-04-21T04:27:01;12.68;;;2.88;;
69325;SDS011;56471;53.508;49.252;2023-04-21T04:29:28;9.73;;;2.60;;
69325;SDS011;56471;53.508;49.252;2023-04-21T04:31:53;13.13;;;2.60;;
69325;SDS011;56471;53.508;49.252;2023-04-21T04:34:20;10.10;;;2.50;;
69325;SDS011;56471;53.508;49.252;2023-04-21T04:36:48;10.98;;;2.60;;
69325;SDS011;56471;53.508;49.252;2023-04-21T04:39:16;9.60;;;2.45;;
69325;SDS011;56471;53.508;49.252;2023-04-21T04:41:42;8.13;;;2.50;;
69325;SDS011;56471;53.508;49.252;2023-04-21T04:44:07;10.02;;;2.47;;
69325;SDS011;56471;53.508;49.252;2023-04-21T04:46:35;8.73;;;2.15;;
69325;SDS011;56471;53.508;49.252;2023-04-21T04:49:00;6.75;;;2.50;;
69325;SDS011;56471;53.508;49.252;2023-04-21T04:51:26;11.43;;;2.38;;
69325;SDS011;56471;53.508;49.252;2023-04-21T04:53:52;10.15;;;2.30;;
69325;SDS011;56471;53.508;49.252;2023-04-21T04:56:18;6.40;;;2.30;;
69325;SDS011;56471;53.508;49.252;2023-04-21T04:58:43;8.18;;;2.00;;
69325;SDS011;56471;53.508;49.252;2023-04-21T05:01:12;5.03;;;2.20;;
69325;SDS011;56471;53.508;49.252;2023-04-21T05:03:41;9.23;;;2.03;;
69325;SDS011;56471;53.508;49.252;2023-04-21T05:06:08;5.57;;;2.10;;
69325;SDS011;56471;53.508;49.252;2023-04-21T05:08:34;13.57;;;2.45;;
69325;SDS011;56471;53.508;49.252;2023-04-21T05:11:00;7.97;;;2.08;;
69325;SDS011;56471;53.508;49.252;2023-04-21T05:13:26;7.20;;;1.83;;
69325;SDS011;56471;53.508;49.252;2023-04-21T05:16:01;4.85;;;2.10;;
69325;SDS011;56471;53.508;49.252;2023-04-21T05:18:26;6.68;;;1.75;;
69325;SDS011;56471;53.508;49.252;2023-04-21T05:20:52;6.90;;;1.90;;
69325;SDS011;56471;53.508;49.252;2023-04-21T05:23:18;3.72;;;2.00;;
69325;SDS011;56471;53.508;49.252;2023-04-21T05:25:44;7.15;;;1.88;;
69325;SDS011;56471;53.508;49.252;2023-04-21T05:28:10;6.55;;;1.70;;
69325;SDS011;56471;53.508;49.252;2023-04-21T05:30:35;4.82;;;1.75;;
69325;SDS011;56471;53.508;49.252;2023-04-21T05:33:01;4.47;;;1.90;;
69325;SDS011;56471;53.508;49.252;2023-04-21T05:35:29;6.10;;;1.77;;
69325;SDS011;56471;53.508;49.252;2023-04-21T05:37:55;4.18;;;1.90;;
69325;SDS011;56471;53.508;49.252;2023-04-21T05:40:21;4.22;;;1.70;;
69325;SDS011;56471;53.508;49.252;2023-04-21T05:42:46;5.65;;;1.90;;
69325;SDS011;56471;53.508;49.252;2023-04-21T05:45:12;8.88;;;2.17;;
69325;SDS011;56471;53.508;49.252;2023-04-21T05:47:37;8.52;;;2.08;;
69325;SDS011;56471;53.508;49.252;2023-04-21T05:50:04;5.80;;;1.90;;
69325;SDS011;56471;53.508;49.252;2023-04-21T05:52:30;2.90;;;1.80;;
69325;SDS011;56471;53.508;49.252;2023-04-21T05:54:56;7.93;;;2.00;;
69325;SDS011;56471;53.508;49.252;2023-04-21T05:57:23;6.82;;;1.73;;
69325;SDS011;56471;53.508;49.252;2023-04-21T05:59:49;9.50;;;2.30;;
69325;SDS011;56471;53.508;49.252;2023-04-21T06:02:14;5.60;;;2.10;;
69325;SDS011;56471;53.508;49.252;2023-04-21T06:04:40;8.00;;;2.10;;
69325;SDS011;56471;53.508;49.252;2023-04-21T06:07:06;7.40;;;1.95;;
69325;SDS011;56471;53.508;49.252;2023-04-21T06:09:34;9.35;;;2.33;;
69325;SDS011;56471;53.508;49.252;2023-04-21T06:12:01;9.55;;;2.40;;
69325;SDS011;56471;53.508;49.252;2023-04-21T06:14:27;7.18;;;2.15;;
69325;SDS011;56471;53.508;49.252;2023-04-21T06:16:53;8.52;;;2.20;;
69325;SDS011;56471;53.508;49.252;2023-04-21T06:19:19;5.10;;;2.20;;
69325;SDS011;56471;53.508;49.252;2023-04-21T06:21:45;5.88;;;2.00;;
69325;SDS011;56471;53.508;49.252;2023-04-21T06:24:10;10.07;;;1.95;;
69325;SDS011;56471;53.508;49.252;2023-04-21T06:26:36;6.53;;;1.95;;
69325;SDS011;56471;53.508;49.252;2023-04-21T06:29:02;4.85;;;2.05;;
69325;SDS011;56471;53.508;49.252;2023-04-21T06:31:28;7.53;;;2.00;;
69325;SDS011;56471;53.508;49.252;2023-04-21T06:33:53;8.48;;;1.80;;
69325;SDS011;56471;53.508;49.252;2023-04-21T06:36:19;5.05;;;2.05;;
69325;SDS011;56471;53.508;49.252;2023-04-21T06:38:47;8.18;;;2.00;;
69325;SDS011;56471;53.508;49.252;2023-04-21T06:41:12;5.18;;;1.90;;
69325;SDS011;56471;53.508;49.252;2023-04-21T06:43:38;7.80;;;1.83;;
69325;SDS011;56471;53.508;49.252;2023-04-21T06:46:05;8.38;;;1.88;;
69325;SDS011;56471;53.508;49.252;2023-04-21T06:48:30;9.50;;;1.73;;
69325;SDS011;56471;53.508;49.252;2023-04-21T06:50:56;6.93;;;1.83;;
69325;SDS011;56471;53.508;49.252;2023-04-21T06:53:22;9.77;;;1.90;;
69325;SDS011;56471;53.508;49.252;2023-04-21T06:55:47;5.78;;;1.67;;
69325;SDS011;56471;53.508;49.252;2023-04-21T06:58:13;6.25;;;1.65;;
69325;SDS011;56471;53.508;49.252;2023-04-21T07:00:39;6.03;;;1.92;;
69325;SDS011;56471;53.508;49.252;2023-04-21T07:03:05;8.63;;;1.77;;
69325;SDS011;56471;53.508;49.252;2023-04-21T07:05:31;7.65;;;2.00;;
69325;SDS011;56471;53.508;49.252;2023-04-21T07:07:57;8.50;;;1.80;;
69325;SDS011;56471;53.508;49.252;2023-04-21T07:10:26;6.70;;;2.10;;
69325;SDS011;56471;53.508;49.252;2023-04-21T07:12:51;7.35;;;1.55;;
69325;SDS011;56471;53.508;49.252;2023-04-21T07:15:17;5.40;;;1.80;;
69325;SDS011;56471;53.508;49.252;2023-04-21T07:17:43;6.32;;;1.95;;
69325;SDS011;56471;53.508;49.252;2023-04-21T07:20:09;5.78;;;1.75;;
69325;SDS011;56471;53.508;49.252;2023-04-21T07:22:35;3.80;;;1.55;;
69325;SDS011;56471;53.508;49.252;2023-04-21T07:25:04;9.00;;;1.55;;
69325;SDS011;56471;53.508;49.252;2023-04-21T07:27:33;4.57;;;1.75;;
69325;SDS011;56471;53.508;49.252;2023-04-21T07:30:01;6.65;;;1.70;;
69325;SDS011;56471;53.508;49.252;2023-04-21T07:32:27;7.45;;;2.08;;
69325;SDS011;56471;53.508;49.252;2023-04-21T07:34:53;6.80;;;1.58;;
69325;SDS011;56471;53.508;49.252;2023-04-21T07:37:19;11.60;;;1.60;;
69325;SDS011;56471;53.508;49.252;2023-04-21T07:39:45;7.20;;;2.03;;
69325;SDS011;56471;53.508;49.252;2023-04-21T07:42:11;7.80;;;1.77;;
69325;SDS011;56471;53.508;49.252;2023-04-21T07:44:37;5.10;;;1.58;;
69325;SDS011;56471;53.508;49.252;2023-04-21T07:47:03;5.80;;;1.58;;
69325;SDS011;56471;53.508;49.252;2023-04-21T07:49:29;4.18;;;1.42;;
69325;SDS011;56471;53.508;49.252;2023-04-21T07:51:55;5.97;;;1.50;;
69325;SDS011;56471;53.508;49.252;2023-04-21T07:54:21;3.28;;;1.40;;
69325;SDS011;56471;53.508;49.252;2023-04-21T07:56:46;5.50;;;1.48;;
69325;SDS011;56471;53.508;49.252;2023-04-21T07:59:12;9.55;;;2.03;;
69325;SDS011;56471;53.508;49.252;2023-04-21T08:01:38;7.78;;;1.42;;
69325;SDS011;56471;53.508;49.252;2023-04-21T08:04:04;8.82;;;1.73;;
69325;SDS011;56471;53.508;49.252;2023-04-21T08:06:30;7.47;;;1.45;;
69325;SDS011;56471;53.508;49.252;2023-04-21T08:08:57;7.63;;;1.77;;
69325;SDS011;56471;53.508;49.252;2023-04-21T08:11:23;5.47;;;1.50;;
69325;SDS011;56471;53.508;49.252;2023-04-21T08:13:48;6.20;;;1.70;;
69325;SDS011;56471;53.508;49.252;2023-04-21T08:16:14;9.52;;;1.70;;
69325;SDS011;56471;53.508;49.252;2023-04-21T08:18:40;10.25;;;1.63;;
69325;SDS011;56471;53.508;49.252;2023-04-21T08:21:05;4.78;;;1.40;;
69325;SDS011;56471;53.508;49.252;2023-04-21T08:23:31;4.03;;;1.50;;
69325;SDS011;56471;53.508;49.252;2023-04-21T08:25:57;6.45;;;1.50;;
69325;SDS011;56471;53.508;49.252;2023-04-21T08:28:22;7.50;;;1.95;;
69325;SDS011;56471;53.508;49.252;2023-04-21T08:30:48;6.50;;;1.50;;
69325;SDS011;56471;53.508;49.252;2023-04-21T08:33:14;5.63;;;1.70;;
69325;SDS011;56471;53.508;49.252;2023-04-21T08:35:40;4.82;;;1.50;;
69325;SDS011;56471;53.508;49.252;2023-04-21T08:38:06;5.60;;;1.48;;
69325;SDS011;56471;53.508;49.252;2023-04-21T08:40:33;4.90;;;1.40;;
69325;SDS011;56471;53.508;49.252;2023-04-21T08:43:02;6.43;;;1.63;;
69325;SDS011;56471;53.508;49.252;2023-04-21T08:45:31;7.18;;;1.63;;
69325;SDS011;56471;53.508;49.252;2023-04-21T08:47:58;8.73;;;1.50;;
69325;SDS011;56471;53.508;49.252;2023-04-21T08:50:28;4.82;;;1.50;;
69325;SDS011;56471;53.508;49.252;2023-04-21T08:52:55;9.90;;;1.50;;
69325;SDS011;56471;53.508;49.252;2023-04-21T08:55:28;7.53;;;1.50;;
69325;SDS011;56471;53.508;49.252;2023-04-21T08:57:55;5.90;;;1.50;;
69325;SDS011;56471;53.508;49.252;2023-04-21T09:00:21;9.30;;;1.80;;
69325;SDS011;56471;53.508;49.252;2023-04-21T09:02:57;5.40;;;1.45;;
69325;SDS011;56471;53.508;49.252;2023-04-21T09:05:25;5.65;;;1.50;;
69325;SDS011;56471;53.508;49.252;2023-04-21T09:08:10;5.63;;;1.40;;
69325;SDS011;56471;53.508;49.252;2023-04-21T09:10:50;4.60;;;1.42;;
69325;SDS011;56471;53.508;49.252;2023-04-21T09:13:16;3.20;;;1.50;;
69325;SDS011;56471;53.508;49.252;2023-04-21T09:15:48;8.75;;;1.33;;
69325;SDS011;56471;53.508;49.252;2023-04-21T09:20:43;4.13;;;1.73;;
69325;SDS011;56471;53.508;49.252;2023-04-21T09:23:10;4.18;;;1.48;;
69325;SDS011;56471;53.508;49.252;2023-04-21T09:25:39;7.57;;;1.50;;
69325;SDS011;56471;53.508;49.252;2023-04-21T09:28:10;4.65;;;1.65;;
69325;SDS011;56471;53.508;49.252;2023-04-21T09:30:37;4.55;;;1.30;;
69325;SDS011;56471;53.508;49.252;2023-04-21T09:33:04;5.93;;;1.50;;
69325;SDS011;56471;53.508;49.252;2023-04-21T09:35:33;5.95;;;1.33;;
69325;SDS011;56471;53.508;49.252;2023-04-21T09:38:01;4.68;;;1.48;;
69325;SDS011;56471;53.508;49.252;2023-04-21T09:40:28;3.65;;;1.23;;
69325;SDS011;56471;53.508;49.252;2023-04-21T09:42:55;6.07;;;1.67;;
69325;SDS011;56471;53.508;49.252;2023-04-21T09:45:27;5.05;;;1.33;;
69325;SDS011;56471;53.508;49.252;2023-04-21T09:47:54;3.08;;;1.25;;
69325;SDS011;56471;53.508;49.252;2023-04-21T09:50:22;5.90;;;1.60;;
69325;SDS011;56471;53.508;49.252;2023-04-21T09:52:50;4.22;;;1.38;;
69325;SDS011;56471;53.508;49.252;2023-04-21T09:55:17;8.88;;;1.50;;
69325;SDS011;56471;53.508;49.252;2023-04-21T09:57:43;3.88;;;1.55;;
69325;SDS011;56471;53.508;49.252;2023-04-21T10:00:17;5.57;;;1.50;;
69325;SDS011;56471;53.508;49.252;2023-04-21T10:02:48;3.33;;;1.35;;
69325;SDS011;56471;53.508;49.252;2023-04-21T10:05:15;5.32;;;1.52;;
69325;SDS011;56471;53.508;49.252;2023-04-21T10:07:45;5.07;;;1.60;;
69325;SDS011;56471;53.508;49.252;2023-04-21T10:13:11;3.55;;;1.40;;
69325;SDS011;56471;53.508;49.252;2023-04-21T10:15:39;2.78;;;1.30;;
69325;SDS011;56471;53.508;49.252;2023-04-21T10:18:12;3.30;;;1.60;;
69325;SDS011;56471;53.508;49.252;2023-04-21T10:20:49;5.60;;;1.48;;
69325;SDS011;56471;53.508;49.252;2023-04-21T10:23:41;3.88;;;1.58;;
69325;SDS011;56471;53.508;49.252;2023-04-21T10:28:52;5.13;;;1.63;;
69325;SDS011;56471;53.508;49.252;2023-04-21T10:39:30;3.13;;;1.60;;
69325;SDS011;56471;53.508;49.252;2023-04-21T10:44:42;5.88;;;1.73;;
69325;SDS011;56471;53.508;49.252;2023-04-21T10:47:08;45.60;;;19.67;;
69325;SDS011;56471;53.508;49.252;2023-04-21T10:49:42;1004.00;;;690.72;;
69325;SDS011;56471;53.508;49.252;2023-04-21T10:52:07;1062.03;;;719.47;;
69325;SDS011;56471;53.508;49.252;2023-04-21T10:54:40;989.20;;;695.00;;
69325;SDS011;56471;53.508;49.252;2023-04-21T10:57:17;833.65;;;610.72;;
69325;SDS011;56471;53.508;49.252;2023-04-21T10:59:44;793.45;;;586.72;;
69325;SDS011;56471;53.508;49.252;2023-04-21T11:02:11;735.40;;;548.25;;
69325;SDS011;56471;53.508;49.252;2023-04-21T11:04:38;702.60;;;517.53;;
69325;SDS011;56471;53.508;49.252;2023-04-21T11:09:34;596.38;;;427.10;;
69325;SDS011;56471;53.508;49.252;2023-04-21T11:12:02;542.08;;;376.60;;
69325;SDS011;56471;53.508;49.252;2023-04-21T11:14:33;483.37;;;329.77;;
69325;SDS011;56471;53.508;49.252;2023-04-21T11:17:00;446.05;;;299.60;;
69325;SDS011;56471;53.508;49.252;2023-04-21T11:19:27;402.73;;;264.27;;
69325;SDS011;56471;53.508;49.252;2023-04-21T11:21:53;371.63;;;234.10;;
69325;SDS011;56471;53.508;49.252;2023-04-21T11:24:22;321.05;;;196.65;;
69325;SDS011;56471;53.508;49.252;2023-04-21T11:26:48;286.20;;;169.20;;
69325;SDS011;56471;53.508;49.252;2023-04-21T11:29:14;250.90;;;142.27;;
69325;SDS011;56471;53.508;49.252;2023-04-21T11:31:41;223.82;;;129.73;;
69325;SDS011;56471;53.508;49.252;2023-04-21T11:34:09;211.93;;;124.05;;
69325;SDS011;56471;53.508;49.252;2023-04-21T11:36:39;191.40;;;109.80;;
69325;SDS011;56471;53.508;49.252;2023-04-21T11:39:06;183.43;;;106.95;;
69325;SDS011;56471;53.508;49.252;2023-04-21T11:41:34;172.18;;;97.70;;
69325;SDS011;56471;53.508;49.252;2023-04-21T11:44:02;149.45;;;85.78;;
69325;SDS011;56471;53.508;49.252;2023-04-21T11:46:28;139.18;;;76.63;;
69325;SDS011;56471;53.508;49.252;2023-04-21T11:49:09;118.72;;;64.80;;
69325;SDS011;56471;53.508;49.252;2023-04-21T11:51:37;113.77;;;63.47;;
69325;SDS011;56471;53.508;49.252;2023-04-21T11:54:07;105.07;;;56.17;;
69325;SDS011;56471;53.508;49.252;2023-04-21T11:56:41;96.72;;;50.03;;
69325;SDS011;56471;53.508;49.252;2023-04-21T11:59:18;85.15;;;43.80;;
69325;SDS011;56471;53.508;49.252;2023-04-21T12:01:51;74.03;;;37.35;;
69325;SDS011;56471;53.508;49.252;2023-04-21T12:04:22;69.70;;;36.03;;
69325;SDS011;56471;53.508;49.252;2023-04-21T12:06:59;59.85;;;29.30;;
69325;SDS011;56471;53.508;49.252;2023-04-21T12:09:26;56.63;;;27.55;;
69325;SDS011;56471;53.508;49.252;2023-04-21T12:11:54;52.20;;;27.02;;
69325;SDS011;56471;53.508;49.252;2023-04-21T12:14:24;47.92;;;22.67;;
69325;SDS011;56471;53.508;49.252;2023-04-21T12:16:53;37.92;;;18.17;;
69325;SDS011;56471;53.508;49.252;2023-04-21T12:22:10;14.65;;;7.43;;
69325;SDS011;56471;53.508;49.252;2023-04-21T12:24:37;12.15;;;5.88;;
69325;SDS011;56471;53.508;49.252;2023-04-21T12:27:04;979.28;;;674.05;;
69325;SDS011;56471;53.508;49.252;2023-04-21T12:29:30;854.88;;;611.83;;
69325;SDS011;56471;53.508;49.252;2023-04-21T12:32:05;754.65;;;545.72;;
69325;SDS011;56471;53.508;49.252;2023-04-21T12:34:31;632.13;;;445.20;;
69325;SDS011;56471;53.508;49.252;2023-04-21T12:36:57;562.15;;;378.65;;
69325;SDS011;56471;53.508;49.252;2023-04-21T12:39:23;476.67;;;314.25;;
69325;SDS011;56471;53.508;49.252;2023-04-21T12:41:49;409.90;;;256.70;;
69325;SDS011;56471;53.508;49.252;2023-04-21T12:44:17;348.48;;;203.35;;
69325;SDS011;56471;53.508;49.252;2023-04-21T12:46:43;281.30;;;157.27;;
69325;SDS011;56471;53.508;49.252;2023-04-21T12:51:42;215.10;;;120.82;;
69325;SDS011;56471;53.508;49.252;2023-04-21T12:54:09;207.10;;;113.38;;
69325;SDS011;56471;53.508;49.252;2023-04-21T12:56:35;167.70;;;93.63;;
69325;SDS011;56471;53.508;49.252;2023-04-21T12:59:03;159.27;;;86.45;;
69325;SDS011;56471;53.508;49.252;2023-04-21T13:01:29;139.40;;;72.82;;
69325;SDS011;56471;53.508;49.252;2023-04-21T13:03:55;123.82;;;63.40;;
69325;SDS011;56471;53.508;49.252;2023-04-21T13:06:20;103.30;;;50.42;;
69325;SDS011;56471;53.508;49.252;2023-04-21T13:08:46;92.63;;;44.40;;
69325;SDS011;56471;53.508;49.252;2023-04-21T13:11:12;80.13;;;38.63;;
69325;SDS011;56471;53.508;49.252;2023-04-21T13:13:38;70.78;;;32.08;;
69325;SDS011;56471;53.508;49.252;2023-04-21T13:16:04;64.57;;;29.88;;
69325;SDS011;56471;53.508;49.252;2023-04-21T13:18:30;53.75;;;26.30;;
69325;SDS011;56471;53.508;49.252;2023-04-21T13:20:55;53.65;;;24.33;;
69325;SDS011;56471;53.508;49.252;2023-04-21T13:23:21;52.10;;;23.60;;
69325;SDS011;56471;53.508;49.252;2023-04-21T13:25:46;45.20;;;21.85;;
69325;SDS011;56471;53.508;49.252;2023-04-21T13:28:14;41.75;;;19.02;;
69325;SDS011;56471;53.508;49.252;2023-04-21T13:30:41;34.40;;;15.90;;
69325;SDS011;56471;53.508;49.252;2023-04-21T13:33:07;29.80;;;14.65;;
69325;SDS011;56471;53.508;49.252;2023-04-21T13:35:32;28.30;;;13.68;;
69325;SDS011;56471;53.508;49.252;2023-04-21T13:37:58;30.08;;;12.60;;
69325;SDS011;56471;53.508;49.252;2023-04-21T13:40:24;23.98;;;11.20;;
69325;SDS011;56471;53.508;49.252;2023-04-21T13:42:50;20.25;;;10.13;;
69325;SDS011;56471;53.508;49.252;2023-04-21T13:45:16;20.50;;;10.02;;
69325;SDS011;56471;53.508;49.252;2023-04-21T13:47:42;18.25;;;9.10;;
69325;SDS011;56471;53.508;49.252;2023-04-21T13:50:07;16.25;;;8.25;;
69325;SDS011;56471;53.508;49.252;2023-04-21T13:52:33;18.55;;;8.10;;
69325;SDS011;56471;53.508;49.252;2023-04-21T13:55:00;14.10;;;7.25;;
69325;SDS011;56471;53.508;49.252;2023-04-21T13:57:27;15.43;;;6.70;;
69325;SDS011;56471;53.508;49.252;2023-04-21T13:59:52;11.73;;;6.40;;
69325;SDS011;56471;53.508;49.252;2023-04-21T14:02:18;13.30;;;6.63;;
69325;SDS011;56471;53.508;49.252;2023-04-21T14:04:47;11.63;;;5.90;;
69325;SDS011;56471;53.508;49.252;2023-04-21T14:07:13;12.07;;;5.45;;
69325;SDS011;56471;53.508;49.252;2023-04-21T14:09:42;11.00;;;6.03;;
69325;SDS011;56471;53.508;49.252;2023-04-21T14:12:07;11.23;;;5.28;;
69325;SDS011;56471;53.508;49.252;2023-04-21T14:14:34;10.25;;;5.45;;
69325;SDS011;56471;53.508;49.252;2023-04-21T14:17:00;9.02;;;4.68;;
69325;SDS011;56471;53.508;49.252;2023-04-21T14:19:25;15.40;;;4.50;;
69325;SDS011;56471;53.508;49.252;2023-04-21T14:21:51;11.05;;;4.53;;
69325;SDS011;56471;53.508;49.252;2023-04-21T14:24:17;8.10;;;4.00;;
69325;SDS011;56471;53.508;49.252;2023-04-21T14:26:42;9.60;;;3.70;;
69325;SDS011;56471;53.508;49.252;2023-04-21T14:29:08;8.93;;;3.88;;
69325;SDS011;56471;53.508;49.252;2023-04-21T14:31:33;7.18;;;4.10;;
69325;SDS011;56471;53.508;49.252;2023-04-21T14:33:59;9.05;;;4.00;;
69325;SDS011;56471;53.508;49.252;2023-04-21T14:36:25;8.82;;;3.85;;
69325;SDS011;56471;53.508;49.252;2023-04-21T14:38:51;10.07;;;3.60;;
69325;SDS011;56471;53.508;49.252;2023-04-21T14:41:17;6.68;;;3.70;;
69325;SDS011;56471;53.508;49.252;2023-04-21T14:43:43;9.65;;;3.88;;
69325;SDS011;56471;53.508;49.252;2023-04-21T14:46:09;11.77;;;4.28;;
69325;SDS011;56471;53.508;49.252;2023-04-21T14:48:34;570.58;;;378.67;;
69325;SDS011;56471;53.508;49.252;2023-04-21T14:51:00;962.42;;;674.13;;